sensor_id;sensor_type;location;lat;lon;timestamp;P1;durP1;ratioP1;P2;durP2;ratioP2
25938;SDS011;13739;51.172;4.466;2022-09-30T00:01:37;14.18;;;7.70;;
25938;SDS011;13739;51.172;4.466;2022-09-30T00:04:12;15.32;;;7.15;;
25938;SDS011;13739;51.172;4.466;2022-09-30T00:06:39;16.60;;;7.97;;
25938;SDS011;13739;51.172;4.466;2022-09-30T00:09:05;12.93;;;7.38;;
25938;SDS011;13739;51.172;4.466;2022-09-30T00:11:31;14.65;;;7.18;;
25938;SDS011;13739;51.172;4.466;2022-09-30T00:14:00;13.38;;;7.50;;
25938;SDS011;13739;51.172;4.466;2022-09-30T00:16:28;14.68;;;8.13;;
25938;SDS011;13739;51.172;4.466;2022-09-30T00:18:56;15.63;;;7.63;;
25938;SDS011;13739;51.172;4.466;2022-09-30T00:21:22;15.32;;;8.40;;
25938;SDS011;13739;51.172;4.466;2022-09-30T00:23:49;13.25;;;7.72;;
25938;SDS011;13739;51.172;4.466;2022-09-30T00:26:16;11.40;;;7.10;;
25938;SDS011;13739;51.172;4.466;2022-09-30T00:28:43;14.30;;;7.63;;
25938;SDS011;13739;51.172;4.466;2022-09-30T00:31:14;15.70;;;7.85;;
25938;SDS011;13739;51.172;4.466;2022-09-30T00:33:41;13.95;;;7.65;;
25938;SDS011;13739;51.172;4.466;2022-09-30T00:36:07;13.50;;;8.18;;
25938;SDS011;13739;51.172;4.466;2022-09-30T00:38:33;13.63;;;6.97;;
25938;SDS011;13739;51.172;4.466;2022-09-30T00:40:59;15.43;;;8.20;;
25938;SDS011;13739;51.172;4.466;2022-09-30T00:46:08;15.55;;;7.60;;
25938;SDS011;13739;51.172;4.466;2022-09-30T00:48:59;12.45;;;7.72;;
25938;SDS011;13739;51.172;4.466;2022-09-30T00:51:35;12.27;;;7.65;;
25938;SDS011;13739;51.172;4.466;2022-09-30T00:54:04;11.82;;;7.75;;
25938;SDS011;13739;51.172;4.466;2022-09-30T00:56:36;14.10;;;8.40;;
25938;SDS011;13739;51.172;4.466;2022-09-30T00:59:13;14.63;;;9.13;;
25938;SDS011;13739;51.172;4.466;2022-09-30T01:01:42;16.95;;;8.80;;
25938;SDS011;13739;51.172;4.466;2022-09-30T01:04:12;15.07;;;8.70;;
25938;SDS011;13739;51.172;4.466;2022-09-30T01:06:40;14.85;;;8.18;;
25938;SDS011;13739;51.172;4.466;2022-09-30T01:09:06;15.13;;;8.00;;
25938;SDS011;13739;51.172;4.466;2022-09-30T01:11:32;19.02;;;8.90;;
25938;SDS011;13739;51.172;4.466;2022-09-30T01:14:04;10.88;;;7.40;;
25938;SDS011;13739;51.172;4.466;2022-09-30T01:21:50;13.48;;;8.13;;
25938;SDS011;13739;51.172;4.466;2022-09-30T01:24:37;15.43;;;8.82;;
25938;SDS011;13739;51.172;4.466;2022-09-30T01:30:04;14.90;;;8.57;;
25938;SDS011;13739;51.172;4.466;2022-09-30T01:32:41;15.07;;;8.43;;
25938;SDS011;13739;51.172;4.466;2022-09-30T01:41:07;13.95;;;8.27;;
25938;SDS011;13739;51.172;4.466;2022-09-30T01:46:40;14.23;;;7.90;;
25938;SDS011;13739;51.172;4.466;2022-09-30T01:49:22;15.25;;;8.38;;
25938;SDS011;13739;51.172;4.466;2022-09-30T01:54:24;11.90;;;8.52;;
25938;SDS011;13739;51.172;4.466;2022-09-30T01:59:45;17.52;;;8.80;;
25938;SDS011;13739;51.172;4.466;2022-09-30T02:02:19;17.00;;;9.70;;
25938;SDS011;13739;51.172;4.466;2022-09-30T02:04:53;17.17;;;9.30;;
25938;SDS011;13739;51.172;4.466;2022-09-30T02:07:30;17.70;;;9.88;;
25938;SDS011;13739;51.172;4.466;2022-09-30T02:10:02;14.23;;;9.65;;
25938;SDS011;13739;51.172;4.466;2022-09-30T02:12:46;15.70;;;9.27;;
25938;SDS011;13739;51.172;4.466;2022-09-30T02:15:30;16.15;;;10.10;;
25938;SDS011;13739;51.172;4.466;2022-09-30T02:18:20;15.20;;;9.85;;
25938;SDS011;13739;51.172;4.466;2022-09-30T02:21:00;16.27;;;9.30;;
25938;SDS011;13739;51.172;4.466;2022-09-30T02:23:30;13.25;;;8.38;;
25938;SDS011;13739;51.172;4.466;2022-09-30T02:28:53;12.40;;;8.48;;
25938;SDS011;13739;51.172;4.466;2022-09-30T02:31:23;15.57;;;9.07;;
25938;SDS011;13739;51.172;4.466;2022-09-30T02:33:52;15.13;;;9.05;;
25938;SDS011;13739;51.172;4.466;2022-09-30T02:36:30;15.98;;;9.38;;
25938;SDS011;13739;51.172;4.466;2022-09-30T02:39:10;14.30;;;9.00;;
25938;SDS011;13739;51.172;4.466;2022-09-30T02:42:16;17.35;;;8.88;;
25938;SDS011;13739;51.172;4.466;2022-09-30T02:44:46;12.60;;;8.93;;
25938;SDS011;13739;51.172;4.466;2022-09-30T02:47:15;13.60;;;8.48;;
25938;SDS011;13739;51.172;4.466;2022-09-30T02:58:46;14.13;;;8.27;;
25938;SDS011;13739;51.172;4.466;2022-09-30T03:01:15;15.30;;;8.80;;
25938;SDS011;13739;51.172;4.466;2022-09-30T03:03:42;13.30;;;8.30;;
25938;SDS011;13739;51.172;4.466;2022-09-30T03:06:15;13.88;;;9.32;;
25938;SDS011;13739;51.172;4.466;2022-09-30T03:08:41;14.80;;;9.90;;
25938;SDS011;13739;51.172;4.466;2022-09-30T03:11:09;17.25;;;9.20;;
25938;SDS011;13739;51.172;4.466;2022-09-30T03:13:53;14.07;;;8.50;;
25938;SDS011;13739;51.172;4.466;2022-09-30T03:17:00;14.07;;;8.90;;
25938;SDS011;13739;51.172;4.466;2022-09-30T03:28:15;14.55;;;9.02;;
25938;SDS011;13739;51.172;4.466;2022-09-30T03:30:50;16.70;;;9.85;;
25938;SDS011;13739;51.172;4.466;2022-09-30T03:33:38;14.18;;;8.57;;
25938;SDS011;13739;51.172;4.466;2022-09-30T03:36:26;18.55;;;10.73;;
25938;SDS011;13739;51.172;4.466;2022-09-30T03:39:10;18.98;;;9.50;;
25938;SDS011;13739;51.172;4.466;2022-09-30T03:41:51;18.05;;;10.70;;
25938;SDS011;13739;51.172;4.466;2022-09-30T03:44:28;18.10;;;10.45;;
25938;SDS011;13739;51.172;4.466;2022-09-30T03:47:00;17.60;;;10.73;;
25938;SDS011;13739;51.172;4.466;2022-09-30T03:49:34;16.73;;;10.23;;
25938;SDS011;13739;51.172;4.466;2022-09-30T03:52:07;18.20;;;10.85;;
25938;SDS011;13739;51.172;4.466;2022-09-30T03:54:42;19.35;;;10.55;;
25938;SDS011;13739;51.172;4.466;2022-09-30T03:57:10;21.30;;;10.82;;
25938;SDS011;13739;51.172;4.466;2022-09-30T03:59:36;21.02;;;11.85;;
25938;SDS011;13739;51.172;4.466;2022-09-30T04:02:01;19.65;;;11.45;;
25938;SDS011;13739;51.172;4.466;2022-09-30T04:04:28;19.60;;;12.02;;
25938;SDS011;13739;51.172;4.466;2022-09-30T04:06:54;18.17;;;11.07;;
25938;SDS011;13739;51.172;4.466;2022-09-30T04:09:19;21.08;;;11.88;;
25938;SDS011;13739;51.172;4.466;2022-09-30T04:11:45;19.65;;;11.95;;
25938;SDS011;13739;51.172;4.466;2022-09-30T04:14:11;22.23;;;11.75;;
25938;SDS011;13739;51.172;4.466;2022-09-30T04:16:36;21.23;;;11.88;;
25938;SDS011;13739;51.172;4.466;2022-09-30T04:19:02;23.20;;;11.88;;
25938;SDS011;13739;51.172;4.466;2022-09-30T04:21:27;19.75;;;11.43;;
25938;SDS011;13739;51.172;4.466;2022-09-30T04:23:54;18.73;;;11.52;;
25938;SDS011;13739;51.172;4.466;2022-09-30T04:26:20;19.25;;;11.75;;
25938;SDS011;13739;51.172;4.466;2022-09-30T04:28:47;23.25;;;12.52;;
25938;SDS011;13739;51.172;4.466;2022-09-30T04:31:13;27.00;;;11.73;;
25938;SDS011;13739;51.172;4.466;2022-09-30T04:33:41;17.70;;;11.23;;
25938;SDS011;13739;51.172;4.466;2022-09-30T04:36:06;20.52;;;11.98;;
25938;SDS011;13739;51.172;4.466;2022-09-30T04:38:32;19.75;;;11.82;;
25938;SDS011;13739;51.172;4.466;2022-09-30T04:41:00;24.52;;;12.27;;
25938;SDS011;13739;51.172;4.466;2022-09-30T04:43:26;20.63;;;11.27;;
25938;SDS011;13739;51.172;4.466;2022-09-30T04:45:52;20.65;;;11.90;;
25938;SDS011;13739;51.172;4.466;2022-09-30T04:48:18;17.00;;;11.30;;
25938;SDS011;13739;51.172;4.466;2022-09-30T04:50:47;19.00;;;11.48;;
25938;SDS011;13739;51.172;4.466;2022-09-30T04:53:14;21.48;;;11.90;;
25938;SDS011;13739;51.172;4.466;2022-09-30T04:55:41;22.95;;;12.15;;
25938;SDS011;13739;51.172;4.466;2022-09-30T04:58:07;20.70;;;12.73;;
25938;SDS011;13739;51.172;4.466;2022-09-30T05:00:33;23.58;;;13.90;;
25938;SDS011;13739;51.172;4.466;2022-09-30T05:02:59;21.52;;;12.93;;
25938;SDS011;13739;51.172;4.466;2022-09-30T05:05:24;26.15;;;13.52;;
25938;SDS011;13739;51.172;4.466;2022-09-30T05:07:50;27.02;;;13.25;;
25938;SDS011;13739;51.172;4.466;2022-09-30T05:10:16;28.23;;;14.50;;
25938;SDS011;13739;51.172;4.466;2022-09-30T05:12:41;24.08;;;13.90;;
25938;SDS011;13739;51.172;4.466;2022-09-30T05:15:09;26.13;;;13.70;;
25938;SDS011;13739;51.172;4.466;2022-09-30T05:17:35;27.15;;;13.30;;
25938;SDS011;13739;51.172;4.466;2022-09-30T05:20:01;26.17;;;13.55;;
25938;SDS011;13739;51.172;4.466;2022-09-30T05:22:27;23.45;;;13.18;;
25938;SDS011;13739;51.172;4.466;2022-09-30T05:24:53;25.98;;;14.27;;
25938;SDS011;13739;51.172;4.466;2022-09-30T05:27:20;25.13;;;13.82;;
25938;SDS011;13739;51.172;4.466;2022-09-30T05:29:47;24.40;;;13.75;;
25938;SDS011;13739;51.172;4.466;2022-09-30T05:32:13;30.73;;;14.65;;
25938;SDS011;13739;51.172;4.466;2022-09-30T05:34:39;22.75;;;13.13;;
25938;SDS011;13739;51.172;4.466;2022-09-30T05:37:04;26.83;;;13.43;;
25938;SDS011;13739;51.172;4.466;2022-09-30T05:39:30;28.80;;;13.50;;
25938;SDS011;13739;51.172;4.466;2022-09-30T05:41:56;26.08;;;14.43;;
25938;SDS011;13739;51.172;4.466;2022-09-30T05:44:22;23.60;;;13.88;;
25938;SDS011;13739;51.172;4.466;2022-09-30T05:46:51;27.98;;;13.90;;
25938;SDS011;13739;51.172;4.466;2022-09-30T05:49:17;25.92;;;13.95;;
25938;SDS011;13739;51.172;4.466;2022-09-30T05:51:42;25.23;;;13.80;;
25938;SDS011;13739;51.172;4.466;2022-09-30T05:54:08;23.10;;;12.77;;
25938;SDS011;13739;51.172;4.466;2022-09-30T05:56:35;25.52;;;13.13;;
25938;SDS011;13739;51.172;4.466;2022-09-30T05:59:03;26.58;;;13.60;;
25938;SDS011;13739;51.172;4.466;2022-09-30T06:01:29;25.60;;;13.55;;
25938;SDS011;13739;51.172;4.466;2022-09-30T06:03:54;22.92;;;13.05;;
25938;SDS011;13739;51.172;4.466;2022-09-30T06:06:20;22.88;;;13.57;;
25938;SDS011;13739;51.172;4.466;2022-09-30T06:08:46;28.60;;;14.88;;
25938;SDS011;13739;51.172;4.466;2022-09-30T06:11:16;26.10;;;14.20;;
25938;SDS011;13739;51.172;4.466;2022-09-30T06:13:43;26.98;;;14.20;;
25938;SDS011;13739;51.172;4.466;2022-09-30T06:16:11;21.42;;;13.05;;
25938;SDS011;13739;51.172;4.466;2022-09-30T06:18:37;27.00;;;14.52;;
25938;SDS011;13739;51.172;4.466;2022-09-30T06:21:05;22.60;;;12.43;;
25938;SDS011;13739;51.172;4.466;2022-09-30T06:23:31;25.15;;;13.55;;
25938;SDS011;13739;51.172;4.466;2022-09-30T06:25:59;24.40;;;13.82;;
25938;SDS011;13739;51.172;4.466;2022-09-30T06:28:25;26.52;;;14.23;;
25938;SDS011;13739;51.172;4.466;2022-09-30T06:30:51;25.20;;;13.90;;
25938;SDS011;13739;51.172;4.466;2022-09-30T06:33:17;25.33;;;13.75;;
25938;SDS011;13739;51.172;4.466;2022-09-30T06:35:44;28.90;;;14.15;;
25938;SDS011;13739;51.172;4.466;2022-09-30T06:38:11;22.27;;;13.45;;
25938;SDS011;13739;51.172;4.466;2022-09-30T06:40:40;25.80;;;14.57;;
25938;SDS011;13739;51.172;4.466;2022-09-30T06:43:06;30.25;;;15.13;;
25938;SDS011;13739;51.172;4.466;2022-09-30T06:45:32;28.95;;;15.02;;
25938;SDS011;13739;51.172;4.466;2022-09-30T06:48:00;28.10;;;14.23;;
25938;SDS011;13739;51.172;4.466;2022-09-30T06:50:31;25.73;;;14.15;;
25938;SDS011;13739;51.172;4.466;2022-09-30T06:52:57;30.80;;;15.43;;
25938;SDS011;13739;51.172;4.466;2022-09-30T06:55:28;25.88;;;14.20;;
25938;SDS011;13739;51.172;4.466;2022-09-30T06:57:54;28.42;;;14.45;;
25938;SDS011;13739;51.172;4.466;2022-09-30T07:00:21;26.92;;;14.93;;
25938;SDS011;13739;51.172;4.466;2022-09-30T07:02:48;27.40;;;14.48;;
25938;SDS011;13739;51.172;4.466;2022-09-30T07:05:18;29.00;;;14.57;;
25938;SDS011;13739;51.172;4.466;2022-09-30T07:07:44;33.22;;;16.30;;
25938;SDS011;13739;51.172;4.466;2022-09-30T07:10:12;27.38;;;14.90;;
25938;SDS011;13739;51.172;4.466;2022-09-30T07:12:39;30.40;;;15.05;;
25938;SDS011;13739;51.172;4.466;2022-09-30T07:15:06;29.45;;;15.13;;
25938;SDS011;13739;51.172;4.466;2022-09-30T07:17:32;29.63;;;15.18;;
25938;SDS011;13739;51.172;4.466;2022-09-30T07:19:57;25.20;;;14.98;;
25938;SDS011;13739;51.172;4.466;2022-09-30T07:22:23;27.50;;;15.38;;
25938;SDS011;13739;51.172;4.466;2022-09-30T07:24:56;27.70;;;14.95;;
25938;SDS011;13739;51.172;4.466;2022-09-30T07:27:24;27.05;;;15.07;;
25938;SDS011;13739;51.172;4.466;2022-09-30T07:29:50;32.05;;;16.08;;
25938;SDS011;13739;51.172;4.466;2022-09-30T07:32:16;31.15;;;15.70;;
25938;SDS011;13739;51.172;4.466;2022-09-30T07:34:43;27.17;;;14.88;;
25938;SDS011;13739;51.172;4.466;2022-09-30T07:37:10;29.45;;;15.77;;
25938;SDS011;13739;51.172;4.466;2022-09-30T07:39:38;27.02;;;14.77;;
25938;SDS011;13739;51.172;4.466;2022-09-30T07:42:05;30.55;;;16.27;;
25938;SDS011;13739;51.172;4.466;2022-09-30T07:44:31;26.05;;;15.52;;
25938;SDS011;13739;51.172;4.466;2022-09-30T07:46:57;29.13;;;15.80;;
25938;SDS011;13739;51.172;4.466;2022-09-30T07:49:24;24.92;;;13.68;;
25938;SDS011;13739;51.172;4.466;2022-09-30T07:51:54;28.88;;;14.65;;
25938;SDS011;13739;51.172;4.466;2022-09-30T07:54:22;24.15;;;14.57;;
25938;SDS011;13739;51.172;4.466;2022-09-30T07:56:52;25.27;;;14.27;;
25938;SDS011;13739;51.172;4.466;2022-09-30T07:59:20;29.38;;;14.93;;
25938;SDS011;13739;51.172;4.466;2022-09-30T08:01:46;26.10;;;14.73;;
25938;SDS011;13739;51.172;4.466;2022-09-30T08:04:13;25.58;;;14.60;;
25938;SDS011;13739;51.172;4.466;2022-09-30T08:06:44;25.77;;;13.73;;
25938;SDS011;13739;51.172;4.466;2022-09-30T08:09:13;27.13;;;14.18;;
25938;SDS011;13739;51.172;4.466;2022-09-30T08:11:40;24.08;;;14.00;;
25938;SDS011;13739;51.172;4.466;2022-09-30T08:14:07;27.15;;;13.80;;
25938;SDS011;13739;51.172;4.466;2022-09-30T08:16:38;25.52;;;14.63;;
25938;SDS011;13739;51.172;4.466;2022-09-30T08:19:03;25.90;;;14.13;;
25938;SDS011;13739;51.172;4.466;2022-09-30T08:21:29;25.67;;;13.98;;
25938;SDS011;13739;51.172;4.466;2022-09-30T08:23:58;22.42;;;12.98;;
25938;SDS011;13739;51.172;4.466;2022-09-30T08:26:23;26.67;;;14.38;;
25938;SDS011;13739;51.172;4.466;2022-09-30T08:28:49;25.90;;;13.07;;
25938;SDS011;13739;51.172;4.466;2022-09-30T08:31:19;25.73;;;13.45;;
25938;SDS011;13739;51.172;4.466;2022-09-30T08:33:46;23.38;;;12.52;;
25938;SDS011;13739;51.172;4.466;2022-09-30T08:36:13;22.52;;;12.00;;
25938;SDS011;13739;51.172;4.466;2022-09-30T08:38:43;27.08;;;12.63;;
25938;SDS011;13739;51.172;4.466;2022-09-30T08:41:26;20.17;;;12.52;;
25938;SDS011;13739;51.172;4.466;2022-09-30T08:52:14;18.52;;;11.23;;
25938;SDS011;13739;51.172;4.466;2022-09-30T08:54:46;17.17;;;10.70;;
25938;SDS011;13739;51.172;4.466;2022-09-30T08:57:14;17.08;;;9.98;;
25938;SDS011;13739;51.172;4.466;2022-09-30T08:59:47;16.80;;;10.45;;
25938;SDS011;13739;51.172;4.466;2022-09-30T09:02:23;17.25;;;10.45;;
25938;SDS011;13739;51.172;4.466;2022-09-30T09:04:51;18.55;;;9.77;;
25938;SDS011;13739;51.172;4.466;2022-09-30T09:10:21;15.60;;;9.65;;
25938;SDS011;13739;51.172;4.466;2022-09-30T09:23:48;15.15;;;8.75;;
25938;SDS011;13739;51.172;4.466;2022-09-30T09:26:15;13.73;;;8.05;;
25938;SDS011;13739;51.172;4.466;2022-09-30T09:28:44;15.80;;;7.60;;
25938;SDS011;13739;51.172;4.466;2022-09-30T09:31:26;14.07;;;6.53;;
25938;SDS011;13739;51.172;4.466;2022-09-30T09:33:51;13.27;;;6.38;;
25938;SDS011;13739;51.172;4.466;2022-09-30T09:54:51;7.63;;;4.25;;
25938;SDS011;13739;51.172;4.466;2022-09-30T09:57:21;8.07;;;4.15;;
25938;SDS011;13739;51.172;4.466;2022-09-30T10:07:49;9.43;;;2.97;;
25938;SDS011;13739;51.172;4.466;2022-09-30T10:10:31;6.60;;;3.13;;
25938;SDS011;13739;51.172;4.466;2022-09-30T10:13:51;6.20;;;2.88;;
25938;SDS011;13739;51.172;4.466;2022-09-30T10:19:02;6.65;;;2.97;;
25938;SDS011;13739;51.172;4.466;2022-09-30T10:21:30;9.30;;;3.03;;
25938;SDS011;13739;51.172;4.466;2022-09-30T10:23:55;7.07;;;3.28;;
25938;SDS011;13739;51.172;4.466;2022-09-30T10:26:22;8.05;;;3.20;;
25938;SDS011;13739;51.172;4.466;2022-09-30T10:28:50;6.05;;;3.42;;
25938;SDS011;13739;51.172;4.466;2022-09-30T10:31:30;7.20;;;3.65;;
25938;SDS011;13739;51.172;4.466;2022-09-30T10:36:44;5.22;;;3.40;;
25938;SDS011;13739;51.172;4.466;2022-09-30T10:41:48;7.63;;;3.85;;
25938;SDS011;13739;51.172;4.466;2022-09-30T10:44:20;12.05;;;3.60;;
25938;SDS011;13739;51.172;4.466;2022-09-30T10:46:48;9.10;;;3.45;;
25938;SDS011;13739;51.172;4.466;2022-09-30T10:49:25;5.47;;;3.40;;
25938;SDS011;13739;51.172;4.466;2022-09-30T10:52:01;6.32;;;3.58;;
25938;SDS011;13739;51.172;4.466;2022-09-30T10:54:32;6.82;;;3.50;;
25938;SDS011;13739;51.172;4.466;2022-09-30T10:57:31;6.82;;;3.22;;
25938;SDS011;13739;51.172;4.466;2022-09-30T10:59:58;7.55;;;3.53;;
25938;SDS011;13739;51.172;4.466;2022-09-30T11:02:47;5.22;;;3.50;;
25938;SDS011;13739;51.172;4.466;2022-09-30T11:13:52;5.43;;;3.08;;
25938;SDS011;13739;51.172;4.466;2022-09-30T11:19:29;5.82;;;3.17;;
25938;SDS011;13739;51.172;4.466;2022-09-30T11:24:37;7.10;;;3.03;;
25938;SDS011;13739;51.172;4.466;2022-09-30T11:30:03;9.80;;;3.67;;
25938;SDS011;13739;51.172;4.466;2022-09-30T11:40:49;4.25;;;2.83;;
25938;SDS011;13739;51.172;4.466;2022-09-30T11:46:46;5.47;;;3.13;;
25938;SDS011;13739;51.172;4.466;2022-09-30T11:51:41;5.28;;;2.97;;
25938;SDS011;13739;51.172;4.466;2022-09-30T11:54:30;4.65;;;2.83;;
25938;SDS011;13739;51.172;4.466;2022-09-30T11:57:05;5.50;;;2.73;;
25938;SDS011;13739;51.172;4.466;2022-09-30T12:02:30;6.30;;;3.42;;
25938;SDS011;13739;51.172;4.466;2022-09-30T12:05:11;7.97;;;2.97;;
25938;SDS011;13739;51.172;4.466;2022-09-30T12:07:45;5.07;;;2.88;;
25938;SDS011;13739;51.172;4.466;2022-09-30T12:10:32;5.70;;;3.03;;
25938;SDS011;13739;51.172;4.466;2022-09-30T12:13:21;7.63;;;3.28;;
25938;SDS011;13739;51.172;4.466;2022-09-30T12:15:54;10.50;;;4.00;;
25938;SDS011;13739;51.172;4.466;2022-09-30T12:18:24;7.97;;;3.50;;
25938;SDS011;13739;51.172;4.466;2022-09-30T12:20:59;6.45;;;3.70;;
25938;SDS011;13739;51.172;4.466;2022-09-30T12:23:41;6.78;;;3.88;;
25938;SDS011;13739;51.172;4.466;2022-09-30T12:26:13;7.97;;;3.55;;
25938;SDS011;13739;51.172;4.466;2022-09-30T12:48:27;4.95;;;3.08;;
25938;SDS011;13739;51.172;4.466;2022-09-30T12:51:00;7.28;;;3.47;;
25938;SDS011;13739;51.172;4.466;2022-09-30T12:56:03;5.85;;;2.80;;
25938;SDS011;13739;51.172;4.466;2022-09-30T12:58:44;7.45;;;3.53;;
25938;SDS011;13739;51.172;4.466;2022-09-30T13:01:14;5.60;;;3.40;;
25938;SDS011;13739;51.172;4.466;2022-09-30T13:06:25;7.55;;;3.17;;
25938;SDS011;13739;51.172;4.466;2022-09-30T13:27:35;5.82;;;2.90;;
25938;SDS011;13739;51.172;4.466;2022-09-30T13:30:27;4.85;;;2.65;;
25938;SDS011;13739;51.172;4.466;2022-09-30T13:40:55;5.90;;;3.45;;
25938;SDS011;13739;51.172;4.466;2022-09-30T13:43:30;4.25;;;2.97;;
25938;SDS011;13739;51.172;4.466;2022-09-30T13:46:06;5.00;;;3.47;;
25938;SDS011;13739;51.172;4.466;2022-09-30T13:48:50;7.85;;;3.15;;
25938;SDS011;13739;51.172;4.466;2022-09-30T13:51:21;7.07;;;3.15;;
25938;SDS011;13739;51.172;4.466;2022-09-30T13:53:50;6.00;;;3.22;;
25938;SDS011;13739;51.172;4.466;2022-09-30T14:15:21;4.93;;;2.75;;
25938;SDS011;13739;51.172;4.466;2022-09-30T14:20:38;6.57;;;2.50;;
25938;SDS011;13739;51.172;4.466;2022-09-30T14:23:15;4.43;;;3.00;;
25938;SDS011;13739;51.172;4.466;2022-09-30T14:25:49;5.10;;;2.47;;
25938;SDS011;13739;51.172;4.466;2022-09-30T14:28:39;3.73;;;2.20;;
25938;SDS011;13739;51.172;4.466;2022-09-30T14:31:17;3.80;;;2.22;;
25938;SDS011;13739;51.172;4.466;2022-09-30T14:33:44;5.60;;;2.20;;
25938;SDS011;13739;51.172;4.466;2022-09-30T14:36:17;3.33;;;1.92;;
25938;SDS011;13739;51.172;4.466;2022-09-30T14:38:46;4.85;;;2.13;;
25938;SDS011;13739;51.172;4.466;2022-09-30T14:41:17;4.43;;;1.95;;
25938;SDS011;13739;51.172;4.466;2022-09-30T14:43:45;4.45;;;2.30;;
25938;SDS011;13739;51.172;4.466;2022-09-30T14:49:08;5.90;;;2.10;;
25938;SDS011;13739;51.172;4.466;2022-09-30T14:51:42;4.78;;;2.00;;
25938;SDS011;13739;51.172;4.466;2022-09-30T14:54:29;4.88;;;1.83;;
25938;SDS011;13739;51.172;4.466;2022-09-30T14:56:57;4.53;;;2.00;;
25938;SDS011;13739;51.172;4.466;2022-09-30T14:59:25;2.80;;;1.88;;
25938;SDS011;13739;51.172;4.466;2022-09-30T15:02:14;12.10;;;2.70;;
25938;SDS011;13739;51.172;4.466;2022-09-30T15:04:49;5.25;;;1.60;;
25938;SDS011;13739;51.172;4.466;2022-09-30T15:07:16;4.00;;;1.90;;
25938;SDS011;13739;51.172;4.466;2022-09-30T15:09:42;4.50;;;2.20;;
25938;SDS011;13739;51.172;4.466;2022-09-30T15:14:50;3.78;;;1.90;;
25938;SDS011;13739;51.172;4.466;2022-09-30T15:17:18;3.97;;;2.30;;
25938;SDS011;13739;51.172;4.466;2022-09-30T15:19:46;6.38;;;2.25;;
25938;SDS011;13739;51.172;4.466;2022-09-30T15:22:14;5.03;;;2.08;;
25938;SDS011;13739;51.172;4.466;2022-09-30T15:24:41;4.60;;;1.70;;
25938;SDS011;13739;51.172;4.466;2022-09-30T15:27:13;4.55;;;1.80;;
25938;SDS011;13739;51.172;4.466;2022-09-30T15:29:57;3.83;;;2.03;;
25938;SDS011;13739;51.172;4.466;2022-09-30T15:32:25;4.90;;;1.85;;
25938;SDS011;13739;51.172;4.466;2022-09-30T15:34:54;3.35;;;2.20;;
25938;SDS011;13739;51.172;4.466;2022-09-30T15:37:23;3.88;;;2.50;;
25938;SDS011;13739;51.172;4.466;2022-09-30T15:39:50;4.72;;;2.20;;
25938;SDS011;13739;51.172;4.466;2022-09-30T15:42:36;9.05;;;2.10;;
25938;SDS011;13739;51.172;4.466;2022-09-30T15:45:03;8.93;;;2.35;;
25938;SDS011;13739;51.172;4.466;2022-09-30T15:47:52;4.25;;;1.65;;
25938;SDS011;13739;51.172;4.466;2022-09-30T15:50:33;3.53;;;2.20;;
25938;SDS011;13739;51.172;4.466;2022-09-30T15:53:02;3.17;;;1.90;;
25938;SDS011;13739;51.172;4.466;2022-09-30T15:55:34;3.28;;;1.90;;
25938;SDS011;13739;51.172;4.466;2022-09-30T15:58:00;4.18;;;2.17;;
25938;SDS011;13739;51.172;4.466;2022-09-30T16:05:49;3.00;;;1.90;;
25938;SDS011;13739;51.172;4.466;2022-09-30T16:08:58;3.97;;;2.10;;
25938;SDS011;13739;51.172;4.466;2022-09-30T16:13:51;4.07;;;2.35;;
25938;SDS011;13739;51.172;4.466;2022-09-30T16:16:23;4.03;;;2.40;;
25938;SDS011;13739;51.172;4.466;2022-09-30T16:18:51;4.38;;;2.35;;
25938;SDS011;13739;51.172;4.466;2022-09-30T16:21:28;3.85;;;1.95;;
25938;SDS011;13739;51.172;4.466;2022-09-30T16:24:04;8.10;;;2.00;;
25938;SDS011;13739;51.172;4.466;2022-09-30T16:26:56;4.15;;;2.00;;
25938;SDS011;13739;51.172;4.466;2022-09-30T16:29:25;4.57;;;1.90;;
25938;SDS011;13739;51.172;4.466;2022-09-30T16:31:54;3.50;;;1.65;;
25938;SDS011;13739;51.172;4.466;2022-09-30T16:36:48;2.58;;;1.63;;
25938;SDS011;13739;51.172;4.466;2022-09-30T16:39:15;5.25;;;1.60;;
25938;SDS011;13739;51.172;4.466;2022-09-30T16:41:41;4.82;;;1.90;;
25938;SDS011;13739;51.172;4.466;2022-09-30T16:44:07;3.55;;;1.80;;
25938;SDS011;13739;51.172;4.466;2022-09-30T16:46:34;3.00;;;1.80;;
25938;SDS011;13739;51.172;4.466;2022-09-30T16:49:17;4.47;;;1.95;;
25938;SDS011;13739;51.172;4.466;2022-09-30T16:51:43;4.13;;;1.80;;
25938;SDS011;13739;51.172;4.466;2022-09-30T16:54:09;3.85;;;1.88;;
25938;SDS011;13739;51.172;4.466;2022-09-30T16:56:36;3.00;;;1.58;;
25938;SDS011;13739;51.172;4.466;2022-09-30T16:59:02;5.03;;;1.88;;
25938;SDS011;13739;51.172;4.466;2022-09-30T17:01:31;3.85;;;2.03;;
25938;SDS011;13739;51.172;4.466;2022-09-30T17:03:56;3.00;;;1.63;;
25938;SDS011;13739;51.172;4.466;2022-09-30T17:06:28;4.50;;;2.00;;
25938;SDS011;13739;51.172;4.466;2022-09-30T17:08:55;2.85;;;2.25;;
25938;SDS011;13739;51.172;4.466;2022-09-30T17:11:23;4.32;;;2.22;;
25938;SDS011;13739;51.172;4.466;2022-09-30T17:13:55;5.72;;;2.10;;
25938;SDS011;13739;51.172;4.466;2022-09-30T17:16:22;3.90;;;2.17;;
25938;SDS011;13739;51.172;4.466;2022-09-30T17:18:48;5.03;;;2.40;;
25938;SDS011;13739;51.172;4.466;2022-09-30T17:21:21;6.63;;;2.75;;
25938;SDS011;13739;51.172;4.466;2022-09-30T17:23:48;5.28;;;2.20;;
25938;SDS011;13739;51.172;4.466;2022-09-30T17:26:15;6.05;;;2.08;;
25938;SDS011;13739;51.172;4.466;2022-09-30T17:28:40;6.00;;;2.00;;
25938;SDS011;13739;51.172;4.466;2022-09-30T17:31:07;7.45;;;2.08;;
25938;SDS011;13739;51.172;4.466;2022-09-30T17:33:34;4.97;;;2.33;;
25938;SDS011;13739;51.172;4.466;2022-09-30T17:36:03;4.30;;;2.55;;
25938;SDS011;13739;51.172;4.466;2022-09-30T17:38:33;5.18;;;2.88;;
25938;SDS011;13739;51.172;4.466;2022-09-30T17:40:59;4.82;;;2.45;;
25938;SDS011;13739;51.172;4.466;2022-09-30T17:43:43;3.20;;;2.30;;
25938;SDS011;13739;51.172;4.466;2022-09-30T17:46:10;4.95;;;2.50;;
25938;SDS011;13739;51.172;4.466;2022-09-30T17:48:36;5.03;;;2.63;;
25938;SDS011;13739;51.172;4.466;2022-09-30T17:51:03;5.10;;;2.50;;
25938;SDS011;13739;51.172;4.466;2022-09-30T17:53:30;3.90;;;2.20;;
25938;SDS011;13739;51.172;4.466;2022-09-30T17:56:00;4.45;;;2.33;;
25938;SDS011;13739;51.172;4.466;2022-09-30T17:58:28;7.22;;;2.85;;
25938;SDS011;13739;51.172;4.466;2022-09-30T18:00:54;5.10;;;2.42;;
25938;SDS011;13739;51.172;4.466;2022-09-30T18:03:23;4.00;;;2.50;;
25938;SDS011;13739;51.172;4.466;2022-09-30T18:05:59;7.25;;;2.33;;
25938;SDS011;13739;51.172;4.466;2022-09-30T18:08:25;3.95;;;2.28;;
25938;SDS011;13739;51.172;4.466;2022-09-30T18:10:52;6.35;;;2.80;;
25938;SDS011;13739;51.172;4.466;2022-09-30T18:13:21;4.43;;;2.50;;
25938;SDS011;13739;51.172;4.466;2022-09-30T18:15:48;5.00;;;2.60;;
25938;SDS011;13739;51.172;4.466;2022-09-30T18:18:13;4.13;;;2.35;;
25938;SDS011;13739;51.172;4.466;2022-09-30T18:20:46;5.70;;;2.78;;
25938;SDS011;13739;51.172;4.466;2022-09-30T18:23:16;3.92;;;2.20;;
25938;SDS011;13739;51.172;4.466;2022-09-30T18:25:43;4.20;;;2.28;;
25938;SDS011;13739;51.172;4.466;2022-09-30T18:28:10;5.22;;;2.70;;
25938;SDS011;13739;51.172;4.466;2022-09-30T18:30:37;5.63;;;2.97;;
25938;SDS011;13739;51.172;4.466;2022-09-30T18:33:03;8.23;;;2.85;;
25938;SDS011;13739;51.172;4.466;2022-09-30T18:35:34;3.55;;;2.30;;
25938;SDS011;13739;51.172;4.466;2022-09-30T18:38:01;6.97;;;3.22;;
25938;SDS011;13739;51.172;4.466;2022-09-30T18:40:27;6.90;;;2.90;;
25938;SDS011;13739;51.172;4.466;2022-09-30T18:42:58;4.50;;;2.50;;